EGBJ/GLO METAR and TAF weather

Enter ICAO airport designator
Station Type Date Time Source
EGBJ METAR 2020/07/07 09:50 UTC NOAA

EGBJ 070950Z 20006KT 160V220 9999 -SHRA SCT023 17/12 Q1020


Station Type Date Time Source
EGBJ Decoded METAR 2020/07/07 09:50 UTC NOAA

Staverton Private , United Kingdom (EGBJ) 51-54N 002-10W
Jul 07, 2020 - 05:50 AM EDT / 2020.07.07 0950 UTC
Wind: from the SSW (200 degrees) at 7 MPH (6 KT) (direction variable):0
Visibility: greater than 7 mile(s):0
Sky conditions: partly cloudy
Weather: light rain showers
Temperature: 62 F (17 C)
Dew Point: 53 F (12 C)
Relative Humidity: 72%
Pressure (altimeter): 30.12 in. Hg (1020 hPa)
ob: EGBJ 070950Z 20006KT 160V220 9999 -SHRA SCT023 17/12 Q1020
cycle: 10

Station Type Date Time Source
EGBJ TAF UTC NOAA

Error!

Example: see airport list